Latest Weather Observations for Mardie

IDW60801

Issued at 8:05 am WST Wednesday 24 September 2014 (issued every 30 minutes, with the page automatically refreshed every 10 minutes)

About weather observations | Map of weather stations | Latest weather observations for WA | Other Formats
Station Details ID: 005008 Name: MARDIE Lat: -21.19 Lon: 115.98 Height: 11.0 m
Data from the previous 72 hours. | See also: Recent months at Mardie
Date/Time
WST
Temp
°C
App
Temp
°C
Dew
Point
Rel
Hum
%
Delta-T
°C
Wind Press
QNH
hPa
Press
MSL
hPa
Rain
since 9 am
mm
Dir
 
Spd
km/h
Gust
km/h
Spd
kts
Gust
kts
24/08:00am 23.2 18.8 7.3 36 8.2 E 20 24 11 13 1019.8 1019.7 0.0
24/07:30am 20.6 19.2 12.3 59 4.6 ESE 11 17 6 9 1019.6 1019.5 0.0
24/07:00am 17.6 16.9 12.1 70 3.0 SE 7 9 4 5 1019.3 1019.2 0.0
24/06:30am 15.8 14.9 11.2 74 2.5 SE 7 13 4 7 1019.0 1018.9 0.0
24/06:00am 15.9 14.6 11.1 73 2.6 ESE 9 13 5 7 1018.6 1018.5 0.0
24/05:30am 16.3 14.4 11.7 74 2.5 ESE 13 15 7 8 1018.2 1018.1 0.0
24/05:00am 16.6 14.4 12.0 74 2.5 ESE 15 17 8 9 1017.9 1017.8 0.0
24/04:30am 16.3 14.7 11.7 74 2.5 SE 11 13 6 7 1017.6 1017.5 0.0
24/04:00am 16.2 14.6 11.6 74 2.5 SE 11 11 6 6 1017.5 1017.4 0.0
24/03:30am 16.1 14.8 11.1 72 2.7 SE 9 11 5 6 1017.4 1017.3 0.0
24/03:00am 16.1 14.6 10.6 70 2.9 SE 9 9 5 5 1017.4 1017.3 0.0
24/02:30am 16.3 15.1 10.4 68 3.1 SE 7 9 4 5 1017.5 1017.4 0.0
24/02:00am 15.9 14.4 9.1 64 3.5 SSE 7 7 4 4 1017.5 1017.4 0.0
24/01:30am 16.0 14.5 9.0 63 3.6 SSE 7 7 4 4 1017.7 1017.6 0.0
24/01:00am 16.4 15.0 9.6 64 3.5 SSE 7 7 4 4 1017.9 1017.8 0.0
24/12:30am 16.4 14.8 8.9 61 3.9 SSE 7 7 4 4 1018.1 1018.0 0.0
24/12:00am 16.8 15.2 8.8 59 4.1 NW 7 7 4 4 1018.2 1018.1 0.0
 
Date/Time
WST
Temp
°C
App
Temp
°C
Dew
Point
Rel
Hum
%
Delta-T
°C
Wind Press
QNH
hPa
Press
MSL
hPa
Rain
since 9 am
mm
Dir
 
Spd
km/h
Gust
km/h
Spd
kts
Gust
kts
23/11:30pm 17.4 15.9 8.5 56 4.6 NNW 6 7 3 4 1018.3 1018.2 0.0
23/11:00pm 17.8 15.8 8.6 55 4.7 NNW 9 9 5 5 1018.3 1018.2 0.0
23/10:30pm 18.3 16.9 8.8 54 4.9 NNW 6 6 3 3 1018.5 1018.4 0.0
23/10:00pm 19.0 18.2 9.5 54 5.0 NNW 4 4 2 2 1018.6 1018.5 0.0
23/09:30pm 19.3 18.7 8.9 51 5.4 NNW 2 4 1 2 1018.7 1018.6 0.0
23/09:00pm 19.6 19.7 10.0 54 5.1 CALM 0 0 0 0 1018.4 1018.3 0.0
23/08:30pm 20.1 19.8 11.6 58 4.7 NNW 4 6 2 3 1018.0 1017.9 0.0
23/08:00pm 20.4 19.8 11.6 57 4.9 NNW 6 7 3 4 1017.7 1017.6 0.0
23/07:30pm 20.6 20.2 11.2 55 5.2 NNW 4 7 2 4 1017.3 1017.2 0.0
23/07:00pm 21.3 20.5 11.1 52 5.6 NNW 6 7 3 4 1016.8 1016.8 0.0
23/06:30pm 22.3 21.3 11.1 49 6.2 NW 7 9 4 5 1016.4 1016.4 0.0
23/06:00pm 23.6 21.3 10.3 43 7.3 NW 13 17 7 9 1016.3 1016.3 0.0
23/05:30pm 24.6 21.7 9.7 39 8.2 NW 15 20 8 11 1016.0 1016.0 0.0
23/05:00pm 25.1 21.6 8.6 35 8.9 NNW 17 20 9 11 1015.8 1015.8 0.0
23/04:30pm 25.9 22.7 8.4 33 9.4 NNW 15 24 8 13 1015.8 1015.8 0.0
23/04:00pm 26.0 22.6 7.6 31 9.8 NNW 15 24 8 13 1015.8 1015.8 0.0
23/03:30pm 26.7 22.9 7.7 30 10.2 NNW 17 28 9 15 1016.0 1016.0 0.0
23/03:00pm 27.0 23.2 7.5 29 10.4 NNW 17 28 9 15 1016.0 1016.0 0.0
23/02:30pm 26.6 22.9 6.1 27 10.7 N 15 20 8 11 1016.1 1016.1 0.0
23/02:00pm 27.0 22.2 4.7 24 11.3 NW 19 32 10 17 1016.4 1016.4 0.0
23/01:30pm 27.4 22.7 5.1 24 11.4 NNW 19 30 10 16 1016.7 1016.7 0.0
23/01:00pm 27.7 23.3 4.7 23 11.7 NNW 17 26 9 14 1017.2 1017.1 0.0
23/12:30pm 29.1 24.2 3.9 20 12.8 NW 19 30 10 16 1017.2 1017.1 0.0
23/12:00pm 27.6 24.0 -3.3 13 13.6 NE 6 13 3 7 1017.9 1017.8 0.0
23/11:30am 27.5 24.1 -2.3 14 13.4 N 6 11 3 6 1018.5 1018.4 0.0
23/11:00am 26.4 22.8 -2.3 15 12.8 NNE 7 19 4 10 1018.9 1018.8 0.0
23/10:30am 26.2 22.3 -1.6 16 12.5 ENE 9 17 5 9 1019.2 1019.1 0.0
23/10:00am 25.0 21.2 -0.9 18 11.7 ENE 9 26 5 14 1019.4 1019.3 0.0
23/09:30am 23.9 20.6 0.3 21 10.8 E 7 13 4 7 1019.5 1019.4 0.0
23/09:00am 22.3 18.7 0.8 24 9.8 E 9 15 5 8 1019.5 1019.4 0.0
23/08:30am 21.6 18.4 0.8 25 9.5 ESE 7 11 4 6 1019.4 1019.3 0.0
23/08:00am 20.5 17.5 0.9 27 8.8 SSE 6 9 3 5 1019.2 1019.1 0.0
23/07:30am 18.3 15.7 0.9 31 7.7 S 4 7 2 4 1018.8 1018.7 0.0
23/07:00am 15.9 12.7 0.9 36 6.5 SSW 7 9 4 5 1018.2 1018.1 0.0
23/06:30am 13.2 9.2 0.6 42 5.3 SSW 11 13 6 7 1017.6 1017.5 0.0
23/06:00am 12.3 8.2 0.1 43 5.0 SSW 11 13 6 7 1017.1 1017.0 0.0
23/05:30am 12.9 8.9 0.3 42 5.2 S 11 17 6 9 1016.6 1016.6 0.0
23/05:00am 13.4 9.0 0.4 41 5.4 S 13 15 7 8 1016.3 1016.3 0.0
23/04:30am 14.1 9.8 0.7 40 5.7 S 13 17 7 9 1015.9 1015.9 0.0
23/04:00am 14.5 10.1 0.4 38 6.0 S 13 17 7 9 1015.8 1015.8 0.0
23/03:30am 13.9 7.0 0.2 39 5.7 SSW 26 30 14 16 1015.2 1015.2 0.0
23/03:00am 13.5 10.2 -0.2 39 5.7 SSW 7 9 4 5 1015.8 1015.8 0.0
23/02:30am 14.7 11.0 0.2 37 6.1 SSW 9 13 5 7 1015.9 1015.9 0.0
23/02:00am 15.1 11.1 0.2 36 6.3 SW 11 13 6 7 1016.0 1016.0 0.0
23/01:30am 16.1 12.1 0.3 34 6.8 SW 11 13 6 7 1016.2 1016.2 0.0
23/01:00am 16.9 12.9 0.5 33 7.1 SW 11 15 6 8 1016.3 1016.3 0.0
23/12:30am 17.1 12.8 0.7 33 7.2 SW 13 15 7 8 1016.4 1016.4 0.0
23/12:00am 17.3 13.4 0.9 33 7.2 SW 11 11 6 6 1016.6 1016.6 0.0
 
Date/Time
WST
Temp
°C
App
Temp
°C
Dew
Point
Rel
Hum
%
Delta-T
°C
Wind Press
QNH
hPa
Press
MSL
hPa
Rain
since 9 am
mm
Dir
 
Spd
km/h
Gust
km/h
Spd
kts
Gust
kts
22/11:30pm 17.9 14.7 1.0 32 7.5 SW 7 9 4 5 1016.7 1016.7 0.0
22/11:00pm 18.2 14.6 0.8 31 7.7 SSW 9 11 5 6 1016.8 1016.8 0.0
22/10:30pm 19.2 15.2 0.8 29 8.2 SSW 11 13 6 7 1016.8 1016.8 0.0
22/10:00pm 20.4 16.1 1.3 28 8.7 SSW 13 15 7 8 1016.7 1016.7 0.0
22/09:30pm 21.6 17.3 1.3 26 9.3 SSW 13 17 7 9 1016.7 1016.7 0.0
22/09:00pm 22.5 17.8 0.9 24 9.9 SSW 15 19 8 10 1016.5 1016.5 0.0
22/08:30pm 23.5 18.0 0.6 22 10.5 SSW 19 24 10 13 1016.3 1016.3 0.0
22/08:00pm 24.4 18.7 0.7 21 11.0 S 20 26 11 14 1016.0 1016.0 0.0
22/07:30pm 24.9 19.1 -0.3 19 11.5 S 20 28 11 15 1015.7 1015.7 0.0
22/07:00pm 25.9 19.3 -0.2 18 12.0 S 24 33 13 18 1015.3 1015.3 0.0
22/06:30pm 26.8 19.3 -1.1 16 12.8 S 28 37 15 20 1014.8 1014.8 0.0
22/06:00pm 27.7 19.8 -1.3 15 13.3 S 30 37 16 20 1014.4 1014.4 0.0
22/05:30pm 28.8 20.7 -0.4 15 13.7 S 32 41 17 22 1014.1 1014.1 0.0
22/05:00pm 29.3 20.4 -1.9 13 14.3 S 35 44 19 24 1014.0 1014.0 0.0
22/04:40pm 29.9 21.3 -2.6 12 14.8 S 33 52 18 28 1013.9 1013.9 0.0
22/04:30pm 30.3 21.7 -2.2 12 15.0 S 33 48 18 26 1013.9 1013.9 0.0
22/04:00pm 30.0 21.7 -1.4 13 14.6 S 32 44 17 24 1014.0 1014.0 0.0
22/03:30pm 30.1 21.7 -1.3 13 14.7 S 33 48 18 26 1014.0 1014.0 0.0
22/03:00pm 30.1 22.0 -0.3 14 14.4 S 32 48 17 26 1014.3 1014.3 0.0
22/02:35pm 30.4 22.5 0.9 15 14.3 S 32 54 17 29 1014.4 1014.4 0.0
22/02:30pm 29.6 21.5 1.1 16 13.8 SSW 33 48 18 26 1014.5 1014.5 0.0
22/02:00pm 29.1 21.1 1.6 17 13.4 S 33 46 18 25 1014.7 1014.7 0.0
22/01:48pm 29.1 21.3 1.6 17 13.4 S 32 52 17 28 1014.9 1014.9 0.0
22/01:30pm 29.0 21.0 1.5 17 13.4 S 33 48 18 26 1015.0 1015.0 0.0
22/01:00pm 28.0 19.7 2.2 19 12.6 SSW 35 48 19 26 1015.5 1015.5 0.0
22/12:41pm 27.6 19.4 2.6 20 12.3 S 35 54 19 29 1015.7 1015.7 0.0
22/12:30pm 27.0 18.8 2.8 21 11.9 S 35 48 19 26 1016.0 1016.0 0.0
22/12:00pm 27.1 18.9 2.9 21 11.9 S 35 57 19 31 1016.5 1016.5 0.0
22/11:59am 26.8 19.0 2.7 21 11.8 S 33 57 18 31 1016.5 1016.5 0.0
22/11:30am 25.6 17.1 2.9 23 11.1 S 37 52 20 28 1017.1 1017.0 0.0
22/11:00am 25.2 16.3 3.2 24 10.7 S 39 50 21 27 1017.7 1017.6 0.0
22/10:30am 24.8 16.4 3.5 25 10.4 S 37 52 20 28 1018.2 1018.1 0.0
22/10:00am 23.5 14.7 3.4 27 9.7 S 39 54 21 29 1018.7 1018.6 0.0
22/09:30am 22.2 13.0 3.3 29 9.1 S 41 52 22 28 1019.0 1018.9 0.0
22/09:00am 21.6 13.0 4.7 33 8.3 S 39 50 21 27 1019.2 1019.1 0.0
22/08:30am 20.5 12.2 6.1 39 7.2 S 39 52 21 28 1019.3 1019.2 0.0
22/08:00am 19.9 11.1 7.3 44 6.4 S 43 56 23 30 1019.2 1019.1 0.0
22/07:30am 19.0 12.6 8.4 50 5.5 S 32 41 17 22 1019.0 1018.9 0.0
22/07:00am 17.8 12.3 9.2 57 4.5 SSW 28 39 15 21 1018.8 1018.7 0.0
22/06:30am 17.1 12.7 8.8 58 4.3 SSW 22 32 12 17 1018.5 1018.4 0.0
22/06:00am 17.3 12.5 8.7 57 4.4 SSW 24 33 13 18 1018.1 1018.0 0.0
22/05:30am 17.5 11.7 9.4 59 4.2 S 30 41 16 22 1017.9 1017.8 0.0
22/05:00am 17.4 13.1 10.8 65 3.5 S 24 32 13 17 1017.7 1017.6 0.0
22/04:30am 17.5 13.7 11.1 66 3.5 SSW 22 30 12 16 1017.6 1017.5 0.0
22/04:00am 17.8 13.6 11.1 65 3.6 SSW 24 32 13 17 1017.4 1017.3 0.0
22/03:30am 18.1 14.1 11.9 67 3.4 SSW 24 32 13 17 1017.4 1017.3 0.0
22/03:00am 18.5 14.2 12.0 66 3.6 SSW 26 39 14 21 1017.3 1017.2 0.0
22/02:30am 18.8 13.8 12.3 66 3.6 SSW 30 41 16 22 1017.5 1017.4 0.0
22/02:00am 19.1 13.9 12.8 67 3.5 SSW 32 43 17 23 1017.5 1017.4 0.0
22/01:30am 19.4 15.6 13.6 69 3.3 SSW 26 39 14 21 1017.6 1017.5 0.0
22/01:00am 19.8 14.0 14.0 69 3.3 SSW 37 48 20 26 1017.8 1017.7 0.0
22/12:30am 20.3 14.7 14.4 69 3.4 SSW 37 46 20 25 1017.8 1017.7 0.0
22/12:00am 20.7 16.2 14.8 69 3.5 SSW 32 46 17 25 1017.9 1017.8 0.0
 
Date/Time
WST
Temp
°C
App
Temp
°C
Dew
Point
Rel
Hum
%
Delta-T
°C
Wind Press
QNH
hPa
Press
MSL
hPa
Rain
since 9 am
mm
Dir
 
Spd
km/h
Gust
km/h
Spd
kts
Gust
kts
21/11:30pm 21.6 17.4 15.7 69 3.5 SW 32 43 17 23 1017.8 1017.7 0.0
21/11:00pm 22.4 17.6 15.7 66 4.0 SW 35 48 19 26 1017.7 1017.6 0.0
21/10:30pm 23.5 19.8 17.0 67 4.0 SW 32 41 17 22 1017.6 1017.5 0.0
21/10:00pm 23.8 22.6 17.1 66 4.1 SW 19 30 10 16 1017.5 1017.4 0.0
21/09:30pm 23.9 22.8 17.2 66 4.1 SW 19 26 10 14 1017.4 1017.3 0.0
21/09:00pm 24.1 23.3 18.5 71 3.5 WSW 20 30 11 16 1017.3 1017.2 0.0
21/08:30pm 24.0 22.6 18.9 73 3.2 WSW 24 33 13 18 1017.0 1016.9 0.0
21/08:00pm 24.1 21.8 18.5 71 3.5 WSW 28 37 15 20 1016.5 1016.5 0.0
21/07:30pm 24.4 21.6 18.1 68 4.0 WSW 30 41 16 22 1016.3 1016.3 0.0
21/07:00pm 24.4 23.5 18.3 69 3.8 W 20 28 11 15 1016.0 1016.0 0.0
21/06:30pm 24.6 22.9 18.1 67 4.1 W 24 35 13 19 1015.7 1015.7 0.0
21/06:00pm 25.2 22.1 17.4 62 4.9 W 30 41 16 22 1015.4 1015.4 0.0
21/05:30pm 26.1 22.6 16.4 55 6.0 W 30 41 16 22 1015.3 1015.3 0.0
21/05:00pm 26.8 23.3 16.4 53 6.4 W 30 41 16 22 1015.0 1015.0 0.0
21/04:30pm 26.9 23.4 17.9 57 5.7 W 33 46 18 25 1014.9 1014.9 0.0
21/04:00pm 27.1 24.6 18.9 61 5.3 W 30 41 16 22 1014.8 1014.8 0.0
21/03:30pm 27.5 23.9 17.7 55 6.2 W 33 46 18 25 1015.0 1015.0 0.0
21/03:00pm 27.8 25.3 18.8 58 5.8 W 30 39 16 21 1014.8 1014.8 0.0
21/02:30pm 28.7 26.9 18.8 55 6.4 W 26 35 14 19 1014.8 1014.8 0.0
21/02:00pm 28.6 26.1 17.2 50 7.2 W 26 35 14 19 1014.9 1014.9 0.0
21/01:30pm 29.0 27.0 17.5 49 7.3 W 24 35 13 19 1015.2 1015.2 0.0
21/01:00pm 28.7 25.1 15.2 43 8.2 W 28 35 15 19 1015.6 1015.6 0.0
21/12:30pm 28.9 27.5 17.1 49 7.4 WNW 20 30 11 16 1015.7 1015.7 0.0
21/12:00pm 30.6 28.3 14.7 38 9.7 W 20 30 11 16 1016.0 1016.0 0.0
21/11:30am 30.4 27.9 14.1 37 9.8 W 20 30 11 16 1016.4 1016.4 0.0
21/11:00am 30.3 28.5 14.4 38 9.6 W 17 26 9 14 1016.7 1016.7 0.0
21/10:30am 29.4 29.5 16.6 46 8.0 WSW 11 19 6 10 1017.1 1017.0 0.0
21/10:00am 28.5 27.4 16.4 48 7.5 WSW 17 28 9 15 1017.6 1017.5 0.0
21/09:30am 27.5 27.2 17.4 54 6.3 WSW 15 22 8 12 1017.7 1017.6 0.0
21/09:00am 26.5 25.6 17.8 58 5.5 SW 19 26 10 14 1017.7 1017.6 0.0
21/08:30am 25.6 24.6 18.0 63 4.8 SW 20 28 11 15 1017.5 1017.4 0.0

Other Formats:

Comma delimited format used in spreadsheet applications
http://www.bom.gov.au/fwo/IDW60801/IDW60801.94306.axf

JavaScript Object Notation format (JSON) in row-major order
http://www.bom.gov.au/fwo/IDW60801/IDW60801.94306.json